Weather History for KGYI - November, 2013

Change the Weather History Date:

Sunday, November 17, 2013

  Actual Average (KDFW) Record (KDFW)
Temperature  
Mean Temperature 74 °F 56 °F  
Max Temperature 85 °F 66 °F 87 °F (2013)
Min Temperature 63 °F 46 °F 20 °F (1959)
Degree Days  
Heating Degree Days 0 10  
Month to date heating degree days 122  
Since 1 July heating degree days 194  
Cooling Degree Days 10 1  
Month to date cooling degree days 25  
Year to date cooling degree days 2748  
Growing Degree Days 24 (Base 50)    
Moisture  
Dew Point 56 °F    
Average Humidity 56    
Maximum Humidity 89    
Minimum Humidity 23    
Precipitation  
Precipitation 0.00 in 0.08 in 1.71 in (2004)
Month to date precipitation 1.72  
Year to date precipitation 32.60  
Snow  
Snow 0.00 in 0.00 in 0.00 in ()
Month to date snowfall 0.0  
Since 1 July snowfall 0.0  
Since 1 September snowfall 0.0  
Snow Depth -    
Sea Level Pressure  
Sea Level Pressure 29.83 in    
Wind  
Wind Speed 17 mph (WSW)    
Max Wind Speed 25 mph    
Max Gust Speed 34 mph    
Visibility 10 miles    
Events      
T = Trace of Precipitation, MM = Missing Value Source: NWS Daily Summary

Daily Weather History Graph

Daily Weather History Graph

Search for Another Location

Airport or City:

Trip Planner

Search our weather history database for the weather conditions in past years. The results will help you decide how hot, cold, wet, or windy it might be!

Date:

Astronomy

Nov. 17, 2013 Rise Set
Actual Time 7:00 AM CST 5:22 PM CST
Civil Twilight 6:34 AM CST 5:48 PM CST
Nautical Twilight 6:03 AM CST 6:19 PM CST
Astronomical Twilight 5:34 AM CST 6:48 PM CST
Moon 5:40 PM CST (11/17) 6:56 AM CST (11/17)
Length of Visible Light 11h 14m
Length of Day
10h 21m
Full, 100% of the Moon is Illuminated
Nov 17
Full
Nov 25
Last Quarter
Dec 2
New
Dec 9
First Quarter
Dec 17
Full

Hourly Weather History & Observations

Time (CST) Temp. Heat Index Dew Point Humidity Pressure Visibility Wind Dir Wind Speed Gust Speed Precip Events Conditions
12:15 AM 76.6 °F - 71.8 °F 85% 29.71 in 10.0 mi South 23.0 mph 32.2 mph N/A   Clear
12:35 AM 76.8 °F - 71.8 °F 84% 29.71 in 10.0 mi South 25.3 mph 32.2 mph N/A   Scattered Clouds
12:55 AM 77.0 °F - 71.6 °F 83% 29.70 in 10.0 mi South 25.3 mph 34.5 mph N/A   Mostly Cloudy
1:15 AM 77.0 °F - 71.6 °F 83% 29.70 in 10.0 mi South 21.9 mph 29.9 mph N/A   Scattered Clouds
1:35 AM 77.0 °F - 71.6 °F 83% 29.70 in 10.0 mi South 24.2 mph 27.6 mph N/A   Mostly Cloudy
1:55 AM 77.0 °F - 71.6 °F 83% 29.70 in 10.0 mi SSW 20.7 mph 28.8 mph N/A   Overcast
2:15 AM 76.6 °F - 71.6 °F 84% 29.70 in 10.0 mi South 18.4 mph 26.5 mph N/A   Mostly Cloudy
2:35 AM 76.1 °F - 71.4 °F 85% 29.70 in 10.0 mi South 20.7 mph 26.5 mph N/A   Scattered Clouds
2:55 AM 75.9 °F - 71.2 °F 85% 29.70 in 10.0 mi South 20.7 mph - N/A   Scattered Clouds
3:15 AM 75.4 °F - 71.1 °F 86% 29.70 in 10.0 mi South 17.3 mph 24.2 mph N/A   Clear
3:35 AM 75.2 °F - 71.1 °F 87% 29.70 in 10.0 mi South 18.4 mph 25.3 mph N/A   Clear
3:55 AM 75.4 °F - 71.2 °F 87% 29.70 in 10.0 mi South 16.1 mph 24.2 mph N/A   Scattered Clouds
4:15 AM 75.2 °F - 71.1 °F 87% 29.70 in 10.0 mi SSW 17.3 mph 21.9 mph N/A   Scattered Clouds
4:35 AM 74.8 °F - 71.2 °F 88% 29.69 in 10.0 mi SSW 20.7 mph - N/A   Scattered Clouds
4:55 AM 74.5 °F - 70.9 °F 88% 29.69 in 10.0 mi South 16.1 mph - N/A   Clear
5:15 AM 74.5 °F - 70.7 °F 88% 29.70 in 10.0 mi SSW 17.3 mph 21.9 mph N/A   Scattered Clouds
5:35 AM 74.1 °F - 70.7 °F 89% 29.70 in 10.0 mi SSW 15.0 mph - N/A   Clear
5:55 AM 74.3 °F - 70.7 °F 88% 29.70 in 10.0 mi SSW 16.1 mph - N/A   Scattered Clouds
6:15 AM 74.3 °F - 70.7 °F 88% 29.70 in 10.0 mi SSW 18.4 mph 23.0 mph N/A   Scattered Clouds
6:35 AM 74.3 °F - 70.5 °F 88% 29.71 in 10.0 mi SSW 20.7 mph 26.5 mph N/A   Clear
6:55 AM 73.6 °F - 70.2 °F 89% 29.72 in 10.0 mi SSW 17.3 mph - N/A   Clear
7:15 AM 73.4 °F - 69.8 °F 88% 29.74 in 10.0 mi SSW 18.4 mph - N/A   Clear
7:35 AM 73.4 °F - 69.8 °F 88% 29.74 in 10.0 mi SSW 18.4 mph 24.2 mph N/A   Clear
7:55 AM 73.6 °F - 69.8 °F 88% 29.75 in 10.0 mi SSW 17.3 mph 21.9 mph N/A   Clear
8:15 AM 74.3 °F - 69.8 °F 86% 29.77 in 10.0 mi SSW 18.4 mph 25.3 mph N/A   Clear
8:35 AM 75.0 °F - 69.4 °F 83% 29.78 in 10.0 mi SW 13.8 mph 25.3 mph N/A   Clear
8:55 AM 75.9 °F - 68.9 °F 79% 29.79 in 10.0 mi SW 13.8 mph - N/A   Clear
9:15 AM 76.5 °F - 68.4 °F 76% 29.80 in 10.0 mi SW 15.0 mph 23.0 mph N/A   Clear
9:35 AM 78.1 °F - 67.1 °F 69% 29.80 in 10.0 mi WSW 17.3 mph 20.7 mph N/A   Clear
9:55 AM 79.5 °F - 65.3 °F 62% 29.81 in 10.0 mi WSW 15.0 mph - N/A   Clear
10:15 AM 80.2 °F 81.8 °F 63.9 °F 57% 29.82 in 10.0 mi WSW 12.7 mph - N/A   Clear
10:35 AM 80.6 °F 81.9 °F 63.1 °F 55% 29.82 in 10.0 mi WSW 10.4 mph 17.3 mph N/A   Clear
10:55 AM 82.2 °F 82.1 °F 58.3 °F 44% 29.82 in 10.0 mi WSW 13.8 mph 17.3 mph N/A   Clear
11:15 AM 83.5 °F 82.5 °F 55.6 °F 38% 29.82 in 10.0 mi West 13.8 mph 19.6 mph N/A   Clear
11:35 AM 84.2 °F - 52.7 °F 34% 29.82 in 10.0 mi WNW 18.4 mph 21.9 mph N/A   Clear
11:55 AM 84.6 °F - 50.9 °F 31% 29.81 in 10.0 mi WNW 13.8 mph - N/A   Clear
12:15 PM 84.4 °F - 50.5 °F 31% 29.82 in 10.0 mi West 12.7 mph 19.6 mph N/A   Clear
12:35 PM 84.2 °F - 50.0 °F 30% 29.81 in 10.0 mi NW 11.5 mph 20.7 mph N/A   Clear
12:55 PM 84.7 °F - 49.8 °F 30% 29.81 in 10.0 mi WNW 13.8 mph 19.6 mph N/A   Clear
1:15 PM 84.7 °F - 47.7 °F 27% 29.81 in 10.0 mi West 13.8 mph 18.4 mph N/A   Clear
1:35 PM 84.7 °F - 46.2 °F 26% 29.81 in 10.0 mi West 13.8 mph - N/A   Clear
1:55 PM 85.3 °F - 44.4 °F 24% 29.81 in 10.0 mi WNW 13.8 mph 19.6 mph N/A   Clear
2:15 PM 85.1 °F - 44.1 °F 24% 29.81 in 10.0 mi West 13.8 mph 18.4 mph N/A   Clear
2:35 PM 85.1 °F - 42.8 °F 23% 29.82 in 10.0 mi WNW 12.7 mph 18.4 mph N/A   Clear
2:55 PM 84.7 °F - 43.2 °F 23% 29.82 in 10.0 mi West 10.4 mph - N/A   Clear
3:15 PM 84.6 °F - 43.0 °F 23% 29.82 in 10.0 mi West 9.2 mph - N/A   Clear
3:35 PM 84.2 °F - 43.5 °F 24% 29.83 in 10.0 mi West 10.4 mph - N/A   Clear
3:55 PM 83.7 °F - 44.1 °F 25% 29.84 in 10.0 mi WNW 6.9 mph - N/A   Clear
4:15 PM 82.9 °F - 44.2 °F 26% 29.85 in 10.0 mi WNW 5.8 mph - N/A   Clear
4:35 PM 81.7 °F - 44.1 °F 26% 29.85 in 10.0 mi WNW 6.9 mph - N/A   Clear
4:55 PM 79.2 °F - 47.1 °F 32% 29.86 in 10.0 mi NW 5.8 mph - N/A   Clear
5:15 PM 77.2 °F - 46.4 °F 34% 29.87 in 10.0 mi NW 3.5 mph - N/A   Clear
5:35 PM 75.0 °F - 46.4 °F 36% 29.88 in 10.0 mi North 9.2 mph - N/A   Clear
5:55 PM 71.6 °F - 46.6 °F 41% 29.89 in 10.0 mi North 4.6 mph - N/A   Clear
6:15 PM 73.0 °F - 46.0 °F 38% 29.90 in 10.0 mi Calm Calm - N/A   Clear
6:35 PM 71.1 °F - 46.4 °F 41% 29.92 in 10.0 mi NE 3.5 mph - N/A   Clear
6:55 PM 70.7 °F - 46.0 °F 41% 29.93 in 10.0 mi North 4.6 mph - N/A   Clear
7:15 PM 67.1 °F - 46.8 °F 48% 29.94 in 10.0 mi NNE 9.2 mph - N/A   Clear
7:35 PM 68.0 °F - 45.1 °F 44% 29.95 in 10.0 mi NNE 8.1 mph - N/A   Clear
7:55 PM 67.1 °F - 46.0 °F 47% 29.96 in 10.0 mi NNE 8.1 mph - N/A   Clear
8:15 PM 67.1 °F - 44.8 °F 45% 29.97 in 10.0 mi NNE 9.2 mph - N/A   Clear
8:35 PM 66.6 °F - 43.2 °F 43% 29.98 in 10.0 mi NNE 9.2 mph - N/A   Clear
8:55 PM 66.4 °F - 41.7 °F 41% 29.99 in 10.0 mi NNE 10.4 mph - N/A   Clear
9:15 PM 66.4 °F - 40.3 °F 38% 30.00 in 10.0 mi NE 8.1 mph 16.1 mph N/A   Clear
9:35 PM 64.9 °F - 39.7 °F 40% 30.01 in 10.0 mi NNE 9.2 mph - N/A   Clear
9:55 PM 64.4 °F - 38.7 °F 39% 30.02 in 10.0 mi NNE 8.1 mph - N/A   Clear
10:15 PM 64.4 °F - 39.4 °F 40% 30.04 in 10.0 mi NE 9.2 mph - N/A   Clear
10:35 PM 64.4 °F - 37.2 °F 37% 30.04 in 10.0 mi NE 10.4 mph - N/A   Clear
10:55 PM 64.9 °F - 34.9 °F 33% 30.05 in 10.0 mi NNE 12.7 mph 17.3 mph N/A   Clear
11:15 PM 64.8 °F - 33.3 °F 31% 30.05 in 10.0 mi NNE 12.7 mph - N/A   Clear
11:35 PM 64.8 °F - 32.0 °F 29% 30.05 in 10.0 mi NE 15.0 mph - N/A   Clear
11:55 PM 63.7 °F - 32.0 °F 31% 30.06 in 10.0 mi NE 11.5 mph - N/A   Clear